Time;durP1;ratioP1;P1;durP2;ratioP2;P2;SDS_P1;SDS_P2;PMS_P1;PMS_P2;Temp;Humidity;BMP_temperature;BMP_pressure;BME280_temperature;BME280_humidity;BME280_pressure;Samples;Min_cycle;Max_cycle;Signal;HPM_P1;HPM_P2
2022/03/07 00:01:37;;;;;;;6.88;2.50;;;3.30;99.90;;;;;;5119787;27;20099;-70
2022/03/07 00:04:03;;;;;;;6.28;2.28;;;3.30;99.90;;;;;;5138058;27;20047;-70
2022/03/07 00:06:29;;;;;;;6.40;1.58;;;3.20;99.90;;;;;;5102396;27;20133;-71
2022/03/07 00:08:55;;;;;;;6.23;2.00;;;3.20;99.90;;;;;;5102965;27;20138;-71
2022/03/07 00:11:21;;;;;;;9.70;1.98;;;3.10;99.90;;;;;;5119347;27;20498;-71
2022/03/07 00:13:48;;;;;;;6.47;1.80;;;;;;;;;;5102867;27;20135;-71
2022/03/07 00:16:14;;;;;;;5.22;1.95;;;;;;;;;;5137918;27;20047;-71
2022/03/07 00:18:41;;;;;;;7.22;1.80;;;;;;;;;;5137537;27;20047;-71
2022/03/07 00:21:09;;;;;;;6.32;1.98;;;3.00;99.90;;;;;;5137729;27;20058;-71
2022/03/07 00:23:34;;;;;;;5.53;1.80;;;2.90;99.90;;;;;;5137450;27;20075;-71
2022/03/07 00:26:00;;;;;;;7.50;2.20;;;2.90;99.90;;;;;;5137661;27;20047;-71
2022/03/07 00:28:26;;;;;;;5.80;2.00;;;2.90;99.90;;;;;;5137314;27;20180;-71
2022/03/07 00:30:52;;;;;;;9.07;2.33;;;2.90;99.90;;;;;;5119432;27;20088;-71
2022/03/07 00:33:18;;;;;;;6.87;2.00;;;2.90;99.90;;;;;;5118933;27;20046;-78
2022/03/07 00:35:43;;;;;;;5.27;1.73;;;2.80;99.90;;;;;;5137715;27;20549;-70
2022/03/07 00:38:09;;;;;;;8.73;2.33;;;2.80;99.90;;;;;;5137362;27;20390;-70
2022/03/07 00:40:36;;;;;;;9.47;2.27;;;2.80;99.90;;;;;;5118745;27;20043;-71
2022/03/07 00:43:05;;;;;;;6.70;2.30;;;2.80;99.90;;;;;;5119386;27;20382;-71
2022/03/07 00:45:31;;;;;;;9.18;2.42;;;2.70;99.90;;;;;;5137025;27;20043;-71
2022/03/07 00:47:56;;;;;;;9.87;2.20;;;2.70;99.90;;;;;;5137480;27;20107;-70
2022/03/07 00:50:22;;;;;;;10.53;2.17;;;2.60;99.90;;;;;;5136984;27;20043;-71
2022/03/07 00:52:48;;;;;;;8.43;2.00;;;2.60;99.90;;;;;;5137145;27;20073;-71
2022/03/07 00:55:14;;;;;;;6.07;1.90;;;2.60;99.90;;;;;;5118960;27;20435;-70
2022/03/07 00:57:39;;;;;;;6.93;2.10;;;2.60;99.90;;;;;;5136453;27;20880;-71
2022/03/07 01:00:06;;;;;;;9.57;2.80;;;2.60;99.90;;;;;;5136690;27;20047;-70
2022/03/07 01:02:32;;;;;;;8.40;2.40;;;2.50;99.90;;;;;;5136688;27;20475;-71
2022/03/07 01:04:59;;;;;;;10.40;2.20;;;2.60;99.90;;;;;;5137280;27;20039;-70
2022/03/07 01:07:24;;;;;;;9.73;2.13;;;2.50;99.90;;;;;;5118395;27;20054;-71
2022/03/07 01:09:50;;;;;;;10.30;2.60;;;2.50;99.90;;;;;;5136845;27;20043;-71
2022/03/07 01:12:16;;;;;;;9.63;2.17;;;2.50;99.90;;;;;;5136797;27;20050;-71
2022/03/07 01:14:41;;;;;;;7.50;2.00;;;2.50;99.90;;;;;;5136367;27;20054;-71
2022/03/07 01:17:07;;;;;;;5.93;1.90;;;2.40;99.90;;;;;;5136777;27;20378;-71
2022/03/07 01:19:33;;;;;;;8.63;2.03;;;2.40;99.90;;;;;;5118092;27;20505;-71
2022/03/07 01:21:59;;;;;;;8.77;2.27;;;2.40;99.90;;;;;;5136655;27;20511;-71
2022/03/07 01:24:24;;;;;;;6.63;2.20;;;2.30;99.90;;;;;;5118181;27;20048;-71
2022/03/07 01:26:50;;;;;;;9.67;2.30;;;2.30;99.90;;;;;;5136605;27;20046;-71
2022/03/07 01:29:16;;;;;;;5.37;2.20;;;2.30;99.90;;;;;;5136509;27;20122;-71
2022/03/07 01:31:42;;;;;;;5.80;2.07;;;2.30;99.90;;;;;;5136143;27;20479;-71
2022/03/07 01:34:07;;;;;;;5.00;1.77;;;2.30;99.90;;;;;;5136603;27;20043;-71
2022/03/07 01:36:33;;;;;;;6.53;2.17;;;2.30;99.90;;;;;;5135968;27;20415;-71
2022/03/07 01:38:59;;;;;;;8.23;2.03;;;2.20;99.90;;;;;;5136339;27;20057;-71
2022/03/07 01:41:25;;;;;;;8.60;2.40;;;2.10;99.90;;;;;;5100861;27;20051;-75
2022/03/07 01:43:50;;;;;;;7.23;2.20;;;2.10;99.90;;;;;;5136183;27;20051;-71
2022/03/07 01:46:16;;;;;;;8.90;2.30;;;2.20;99.90;;;;;;5117975;27;20505;-71
2022/03/07 01:48:42;;;;;;;8.53;2.20;;;2.20;99.90;;;;;;5117510;27;20035;-71
2022/03/07 01:51:10;;;;;;;7.03;2.27;;;2.20;99.90;;;;;;5117770;27;20126;-71
2022/03/07 01:53:38;;;;;;;7.20;2.10;;;2.10;99.90;;;;;;5117533;27;20095;-71
2022/03/07 01:56:04;;;;;;;9.38;2.28;;;2.10;99.90;;;;;;5135889;27;20055;-71
2022/03/07 01:58:30;;;;;;;6.63;2.13;;;2.00;99.90;;;;;;5135562;27;20394;-71
2022/03/07 02:00:55;;;;;;;6.10;2.23;;;2.00;99.90;;;;;;5117772;27;20047;-70
2022/03/07 02:03:21;;;;;;;9.30;2.80;;;2.00;99.90;;;;;;5135782;27;20585;-70
2022/03/07 02:05:48;;;;;;;10.10;2.03;;;2.00;99.90;;;;;;5117130;27;20050;-71
2022/03/07 02:08:14;;;;;;;7.13;2.17;;;2.00;99.90;;;;;;5135719;27;20424;-71
2022/03/07 02:10:42;;;;;;;8.85;2.50;;;1.90;99.90;;;;;;5135376;27;20073;-70
2022/03/07 02:13:16;;;;;;;8.25;2.28;;;1.90;99.90;;;;;;5117347;27;20035;-70
2022/03/07 02:15:41;;;;;;;9.75;1.90;;;1.90;99.90;;;;;;5134795;27;20047;-71
2022/03/07 02:18:07;;;;;;;7.30;2.17;;;1.90;99.90;;;;;;5135403;27;20039;-70
2022/03/07 02:20:33;;;;;;;8.50;2.20;;;1.80;99.90;;;;;;5116265;27;20044;-70
2022/03/07 02:22:59;;;;;;;9.82;1.67;;;1.90;99.90;;;;;;5135749;27;20111;-70
2022/03/07 02:25:25;;;;;;;7.32;1.90;;;1.80;99.90;;;;;;5117250;27;20047;-70
2022/03/07 02:27:51;;;;;;;6.77;2.20;;;1.90;99.90;;;;;;5135014;27;20490;-70
2022/03/07 02:30:17;;;;;;;6.13;1.83;;;1.80;99.90;;;;;;5117420;27;20089;-70
2022/03/07 02:32:43;;;;;;;7.63;2.40;;;1.80;99.90;;;;;;5134941;27;20099;-71
2022/03/07 02:35:14;;;;;;;9.07;2.22;;;1.80;99.90;;;;;;5135352;27;20285;-70
2022/03/07 02:37:40;;;;;;;9.32;2.78;;;1.90;99.90;;;;;;5134771;27;20045;-71
2022/03/07 02:40:06;;;;;;;5.88;1.92;;;1.90;99.90;;;;;;5135109;27;20050;-70
2022/03/07 02:42:32;;;;;;;10.32;2.28;;;1.80;99.90;;;;;;5134815;27;20051;-71
2022/03/07 02:44:58;;;;;;;6.83;2.20;;;1.70;99.90;;;;;;5135177;27;20490;-71
2022/03/07 02:47:23;;;;;;;11.40;2.37;;;1.70;99.90;;;;;;5135033;27;20202;-70
2022/03/07 02:49:50;;;;;;;6.83;2.43;;;1.70;99.90;;;;;;5134444;27;20039;-70
2022/03/07 02:52:16;;;;;;;4.70;2.03;;;1.70;99.90;;;;;;5116936;27;20051;-70
2022/03/07 02:54:41;;;;;;;7.40;2.70;;;1.70;99.90;;;;;;5116303;27;20505;-70
2022/03/07 02:57:08;;;;;;;6.90;1.90;;;1.70;99.90;;;;;;5099500;27;20043;-71
2022/03/07 02:59:34;;;;;;;6.63;2.33;;;1.70;99.90;;;;;;5134411;27;20079;-71
2022/03/07 03:02:00;;;;;;;7.45;2.22;;;1.60;99.90;;;;;;5134895;27;20093;-71
2022/03/07 03:04:26;;;;;;;7.67;2.40;;;1.60;99.90;;;;;;5134591;27;20051;-71
2022/03/07 03:06:51;;;;;;;6.67;2.70;;;1.60;99.90;;;;;;5116119;27;20046;-70
2022/03/07 03:09:17;;;;;;;9.00;2.37;;;1.60;99.90;;;;;;5134546;27;20043;-70
2022/03/07 03:11:43;;;;;;;8.70;2.30;;;1.60;99.90;;;;;;5134361;27;20054;-70
2022/03/07 03:14:08;;;;;;;8.27;2.60;;;1.60;99.90;;;;;;5116464;27;20449;-70
2022/03/07 03:16:34;;;;;;;7.00;2.40;;;1.50;99.90;;;;;;5134030;27;20122;-75
2022/03/07 03:19:00;;;;;;;6.23;2.23;;;1.60;99.90;;;;;;5134366;27;20047;-70
2022/03/07 03:21:27;;;;;;;6.47;2.17;;;1.60;99.90;;;;;;5133803;27;20124;-70
2022/03/07 03:23:53;;;;;;;6.43;2.00;;;1.50;99.90;;;;;;5133669;27;20573;-71
2022/03/07 03:26:18;;;;;;;9.73;2.23;;;1.40;99.90;;;;;;5133966;27;20122;-71
2022/03/07 03:28:44;;;;;;;8.33;1.90;;;1.50;99.90;;;;;;5133913;27;20050;-71
2022/03/07 03:31:11;;;;;;;9.73;2.60;;;1.40;99.90;;;;;;5114877;27;20051;-71
2022/03/07 03:33:38;;;;;;;8.07;2.85;;;1.30;99.90;;;;;;5115905;27;20043;-70
2022/03/07 03:36:05;;;;;;;7.70;2.30;;;1.30;99.90;;;;;;5134032;27;20041;-71
2022/03/07 03:38:31;;;;;;;10.77;2.35;;;1.40;99.90;;;;;;5134005;27;20078;-70
2022/03/07 03:40:56;;;;;;;5.93;2.40;;;1.30;99.90;;;;;;5133796;27;20128;-70
2022/03/07 03:43:22;;;;;;;6.80;2.20;;;1.40;99.90;;;;;;5115946;27;20039;-70
2022/03/07 03:45:48;;;;;;;6.35;2.20;;;1.30;99.90;;;;;;5115721;28;20043;-70
2022/03/07 03:48:14;;;;;;;8.20;2.30;;;1.30;99.90;;;;;;5133926;27;20039;-70
2022/03/07 03:50:40;;;;;;;6.93;2.40;;;1.30;99.90;;;;;;5115441;28;20134;-71
2022/03/07 03:53:05;;;;;;;7.67;2.30;;;1.30;99.90;;;;;;5115810;28;20051;-70
2022/03/07 03:55:31;;;;;;;7.03;1.90;;;1.20;99.90;;;;;;5133855;28;20043;-70
2022/03/07 03:57:57;;;;;;;6.77;2.40;;;1.30;99.90;;;;;;5115160;28;20239;-70
2022/03/07 04:00:24;;;;;;;11.37;2.07;;;1.30;99.90;;;;;;5098798;28;20135;-70
2022/03/07 04:02:50;;;;;;;9.85;2.22;;;1.30;99.90;;;;;;5133532;28;20122;-71
2022/03/07 04:05:17;;;;;;;6.10;2.55;;;1.30;99.90;;;;;;5133775;28;20078;-70
2022/03/07 04:07:43;;;;;;;9.73;2.33;;;1.30;99.90;;;;;;5133484;27;20085;-71
2022/03/07 04:10:11;;;;;;;8.05;2.15;;;1.30;99.90;;;;;;5115724;28;20509;-70
2022/03/07 04:12:37;;;;;;;6.20;2.42;;;1.20;99.90;;;;;;5115653;28;20043;-70
2022/03/07 04:15:03;;;;;;;9.13;2.40;;;1.20;99.90;;;;;;5115352;28;20054;-70
2022/03/07 04:17:29;;;;;;;10.18;2.58;;;1.20;99.90;;;;;;5133676;28;20145;-70
2022/03/07 04:19:55;;;;;;;6.90;2.40;;;1.20;99.90;;;;;;5133071;28;20142;-70
2022/03/07 04:22:21;;;;;;;7.83;2.10;;;1.20;99.90;;;;;;5133900;28;20464;-70
2022/03/07 04:24:46;;;;;;;5.13;2.53;;;1.20;99.90;;;;;;5115320;28;20497;-70
2022/03/07 04:27:12;;;;;;;5.97;2.20;;;1.10;99.90;;;;;;5115437;28;20122;-70
2022/03/07 04:29:38;;;;;;;6.37;2.20;;;1.10;99.90;;;;;;5133277;28;20416;-70
2022/03/07 04:32:04;;;;;;;7.47;2.70;;;1.10;99.90;;;;;;5133261;28;20046;-70
2022/03/07 04:34:29;;;;;;;7.18;2.45;;;1.10;99.90;;;;;;5098627;28;20071;-70
2022/03/07 04:36:55;;;;;;;11.97;2.47;;;1.10;99.90;;;;;;5133170;28;20136;-70
2022/03/07 04:39:21;;;;;;;9.07;2.67;;;1.10;99.90;;;;;;5115718;28;20047;-70
2022/03/07 04:41:46;;;;;;;6.43;2.20;;;1.10;99.90;;;;;;5133790;27;20467;-70
2022/03/07 04:44:12;;;;;;;5.70;2.37;;;1.00;99.90;;;;;;5137603;27;20050;-70
2022/03/07 04:46:38;;;;;;;5.83;2.30;;;1.00;99.90;;;;;;5137337;27;20043;-70
2022/03/07 04:49:04;;;;;;;6.22;2.50;;;1.00;99.90;;;;;;5137011;27;20471;-70
2022/03/07 04:51:30;;;;;;;8.38;2.70;;;1.00;99.90;;;;;;5137231;27;20086;-70
2022/03/07 04:53:56;;;;;;;9.87;2.33;;;1.00;99.90;;;;;;5136881;27;20097;-70
2022/03/07 04:56:22;;;;;;;6.60;2.17;;;0.90;99.90;;;;;;5137002;27;20329;-70
2022/03/07 04:58:48;;;;;;;6.05;2.17;;;0.90;99.90;;;;;;5118372;27;20121;-70
2022/03/07 05:01:14;;;;;;;10.50;2.80;;;0.90;99.90;;;;;;5137038;27;20122;-70
2022/03/07 05:03:40;;;;;;;9.48;1.95;;;0.90;99.90;;;;;;5118688;27;20474;-70
2022/03/07 05:06:08;;;;;;;7.63;2.50;;;0.90;99.90;;;;;;5118650;27;20047;-71
2022/03/07 05:08:37;;;;;;;8.25;2.30;;;0.90;99.90;;;;;;5136991;27;20043;-71
2022/03/07 05:11:03;;;;;;;7.00;2.30;;;0.90;99.90;;;;;;5118511;27;20043;-71
2022/03/07 05:13:29;;;;;;;9.98;2.55;;;0.80;99.90;;;;;;5136874;27;20043;-71
2022/03/07 05:15:55;;;;;;;4.30;2.10;;;0.80;99.90;;;;;;5118375;27;20050;-71
2022/03/07 05:18:20;;;;;;;5.43;2.43;;;0.70;99.90;;;;;;5101648;27;20542;-70
2022/03/07 05:20:46;;;;;;;6.17;2.63;;;0.70;99.90;;;;;;5101079;27;20078;-80
2022/03/07 05:23:12;;;;;;;7.43;2.30;;;0.70;99.90;;;;;;5136678;27;20050;-71
2022/03/07 05:25:37;;;;;;;8.30;2.77;;;0.70;99.90;;;;;;5136698;27;20054;-71
2022/03/07 05:28:04;;;;;;;8.43;2.67;;;0.70;99.90;;;;;;5136203;27;20174;-72
2022/03/07 05:30:29;;;;;;;9.65;3.15;;;0.70;99.90;;;;;;5118514;27;20439;-71
2022/03/07 05:32:56;;;;;;;6.37;2.40;;;0.70;99.90;;;;;;5117779;27;20043;-72
2022/03/07 05:35:23;;;;;;;7.70;3.00;;;0.70;99.90;;;;;;5118167;27;20495;-71
2022/03/07 05:37:51;;;;;;;6.85;2.85;;;0.70;99.90;;;;;;5136071;27;20047;-73
2022/03/07 05:40:17;;;;;;;6.07;2.58;;;0.60;99.90;;;;;;5136304;27;20039;-71
2022/03/07 05:42:44;;;;;;;10.02;2.70;;;0.60;99.90;;;;;;5136266;27;20051;-71
2022/03/07 05:45:11;;;;;;;7.00;3.00;;;0.60;99.90;;;;;;5117927;27;20047;-71
2022/03/07 05:47:38;;;;;;;8.23;3.10;;;0.60;99.90;;;;;;5136234;27;20078;-71
2022/03/07 05:50:05;;;;;;;7.38;2.60;;;0.60;99.90;;;;;;5117581;27;20047;-72
2022/03/07 05:52:31;;;;;;;6.68;2.85;;;0.50;99.90;;;;;;5136198;27;20046;-71
2022/03/07 05:54:57;;;;;;;9.30;2.93;;;0.50;99.90;;;;;;5134874;27;20139;-72
2022/03/07 05:57:23;;;;;;;6.50;2.57;;;0.60;99.90;;;;;;5135933;27;20387;-72
2022/03/07 05:59:49;;;;;;;7.10;2.83;;;0.50;99.90;;;;;;5100892;27;20051;-71
2022/03/07 06:02:14;;;;;;;10.07;2.67;;;0.50;99.90;;;;;;5117367;27;20387;-71
2022/03/07 06:04:41;;;;;;;8.70;2.80;;;0.50;99.90;;;;;;5117465;27;20537;-71
2022/03/07 06:07:08;;;;;;;10.23;3.13;;;0.50;99.90;;;;;;5135528;27;20047;-72
2022/03/07 06:09:33;;;;;;;8.18;3.30;;;0.50;99.90;;;;;;5117405;27;20122;-71
2022/03/07 06:11:59;;;;;;;6.10;3.20;;;0.50;99.90;;;;;;5117330;27;20154;-72
2022/03/07 06:14:25;;;;;;;6.97;2.83;;;0.50;99.90;;;;;;5135838;27;20095;-71
2022/03/07 06:16:51;;;;;;;10.03;3.13;;;0.50;99.90;;;;;;5135541;27;20475;-71
2022/03/07 06:19:16;;;;;;;8.33;3.07;;;0.40;99.90;;;;;;5135477;27;20035;-71
2022/03/07 06:21:42;;;;;;;7.47;2.83;;;0.50;99.90;;;;;;5135145;27;20094;-71
2022/03/07 06:24:08;;;;;;;7.57;2.93;;;0.40;99.90;;;;;;5116436;27;20047;-72
2022/03/07 06:26:35;;;;;;;4.75;2.60;;;0.50;99.90;;;;;;5117260;27;20163;-71
2022/03/07 06:29:02;;;;;;;9.57;2.97;;;0.40;99.90;;;;;;5134999;27;20142;-72
2022/03/07 06:31:28;;;;;;;6.82;2.88;;;0.50;99.90;;;;;;5135381;27;20054;-71
2022/03/07 06:33:54;;;;;;;10.10;2.97;;;0.50;99.90;;;;;;5134942;27;20122;-77
2022/03/07 06:36:20;;;;;;;7.07;2.77;;;0.50;99.90;;;;;;5135011;27;20054;-70
2022/03/07 06:38:45;;;;;;;9.50;2.93;;;0.50;99.90;;;;;;5116790;27;20047;-70
2022/03/07 06:41:11;;;;;;;5.97;2.80;;;0.50;99.90;;;;;;5116537;27;20050;-70
2022/03/07 06:43:37;;;;;;;7.80;3.30;;;0.50;99.90;;;;;;5116497;27;20372;-70
2022/03/07 06:46:03;;;;;;;9.98;2.85;;;0.50;99.90;;;;;;5134822;27;20070;-71
2022/03/07 06:48:29;;;;;;;8.95;3.38;;;0.50;99.90;;;;;;5135024;27;20039;-70
2022/03/07 06:50:55;;;;;;;10.37;3.73;;;0.60;99.90;;;;;;5134715;27;20126;-79
2022/03/07 06:53:21;;;;;;;10.10;4.17;;;0.60;99.90;;;;;;5134864;27;20050;-70
2022/03/07 06:55:46;;;;;;;8.27;4.10;;;0.60;99.90;;;;;;5116361;27;20050;-71
2022/03/07 06:58:12;;;;;;;9.17;4.00;;;0.60;99.90;;;;;;5134402;27;20114;-71
2022/03/07 07:00:38;;;;;;;13.27;4.70;;;0.60;99.90;;;;;;5116341;27;20047;-71
2022/03/07 07:03:05;;;;;;;10.03;4.10;;;0.60;99.90;;;;;;5115980;27;20051;-70
2022/03/07 07:05:32;;;;;;;7.47;3.75;;;0.70;99.90;;;;;;5134424;27;20051;-71
2022/03/07 07:07:58;;;;;;;18.95;5.00;;;0.70;99.90;;;;;;5116176;27;20135;-71
2022/03/07 07:10:25;;;;;;;9.07;4.10;;;0.80;99.90;;;;;;5134319;27;20498;-71
2022/03/07 07:12:51;;;;;;;9.38;3.45;;;0.80;99.90;;;;;;5116418;27;20410;-70
2022/03/07 07:15:17;;;;;;;7.73;3.17;;;0.70;99.90;;;;;;5134210;27;20043;-70
2022/03/07 07:17:43;;;;;;;10.27;3.60;;;0.80;99.90;;;;;;5099293;27;20050;-70
2022/03/07 07:20:11;;;;;;;11.45;3.90;;;0.80;99.90;;;;;;5133851;27;20046;-70
2022/03/07 07:22:38;;;;;;;8.93;3.58;;;0.80;99.90;;;;;;5116183;27;20056;-70
2022/03/07 07:25:05;;;;;;;7.57;3.17;;;0.80;99.90;;;;;;5134032;27;20043;-71
2022/03/07 07:27:31;;;;;;;11.30;3.60;;;0.90;99.90;;;;;;5134191;27;20403;-71
2022/03/07 07:29:57;;;;;;;10.73;3.67;;;1.00;99.90;;;;;;5133904;27;20096;-70
2022/03/07 07:32:23;;;;;;;11.48;3.85;;;1.00;99.90;;;;;;5133556;27;20475;-71
2022/03/07 07:34:49;;;;;;;6.60;3.40;;;1.10;99.90;;;;;;5099110;27;20074;-70
2022/03/07 07:37:15;;;;;;;7.77;3.67;;;1.10;99.90;;;;;;5115566;27;20463;-71
2022/03/07 07:39:40;;;;;;;9.90;3.97;;;1.20;99.90;;;;;;5134159;27;20125;-71
2022/03/07 07:42:06;;;;;;;7.20;3.63;;;1.30;99.90;;;;;;5133790;27;20446;-71
2022/03/07 07:44:32;;;;;;;9.00;4.05;;;1.40;99.90;;;;;;5134003;27;20513;-71
2022/03/07 07:46:58;;;;;;;8.83;4.37;;;1.50;99.90;;;;;;5133973;27;20078;-70
2022/03/07 07:49:24;;;;;;;9.70;4.77;;;1.70;99.90;;;;;;5115388;28;20051;-70
2022/03/07 07:51:53;;;;;;;9.23;4.60;;;1.80;99.90;;;;;;5134148;27;20058;-70
2022/03/07 07:54:19;;;;;;;11.27;5.13;;;1.90;99.90;;;;;;5115174;28;20043;-70
2022/03/07 07:56:44;;;;;;;7.90;4.47;;;2.10;99.90;;;;;;5115672;28;20035;-70
2022/03/07 07:59:11;;;;;;;10.70;4.97;;;2.20;99.90;;;;;;5133618;28;20143;-71
2022/03/07 08:01:37;;;;;;;8.43;4.82;;;2.40;99.90;;;;;;5133910;28;20054;-70
2022/03/07 08:04:03;;;;;;;15.07;5.87;;;2.50;99.90;;;;;;5133487;28;20043;-80
2022/03/07 08:06:28;;;;;;;11.55;6.53;;;2.70;99.90;;;;;;5115700;28;20039;-69
2022/03/07 08:08:54;;;;;;;13.70;6.57;;;2.80;99.90;;;;;;5115663;28;20043;-69
2022/03/07 08:11:20;;;;;;;15.10;8.87;;;3.00;99.90;;;;;;5133513;28;20050;-69
2022/03/07 08:13:46;;;;;;;18.30;8.07;;;3.20;99.90;;;;;;5115459;28;20047;-68
2022/03/07 08:16:12;;;;;;;14.67;8.60;;;3.30;99.90;;;;;;5133445;27;20051;-69
2022/03/07 08:18:37;;;;;;;14.67;9.90;;;3.40;99.90;;;;;;5137709;27;20039;-69
2022/03/07 08:21:03;;;;;;;17.23;10.23;;;3.50;99.90;;;;;;5137676;27;20477;-70
2022/03/07 08:23:29;;;;;;;14.23;9.60;;;3.70;99.90;;;;;;5137501;27;20074;-69
2022/03/07 08:25:55;;;;;;;16.97;10.00;;;3.80;99.90;;;;;;5137917;27;20039;-69
2022/03/07 08:28:21;;;;;;;15.95;9.88;;;3.80;99.90;;;;;;5137523;27;20121;-69
2022/03/07 08:30:47;;;;;;;15.10;9.95;;;3.80;99.90;;;;;;5119441;27;20046;-69
2022/03/07 08:33:12;;;;;;;17.27;10.60;;;3.80;99.90;;;;;;5137378;27;20391;-70
2022/03/07 08:35:38;;;;;;;13.43;10.43;;;3.90;99.90;;;;;;5137936;27;20491;-69
2022/03/07 08:38:05;;;;;;;19.00;11.30;;;3.90;99.90;;;;;;5137521;27;20043;-70
2022/03/07 08:40:31;;;;;;;15.75;9.85;;;4.00;99.90;;;;;;5137626;27;20042;-71
2022/03/07 08:42:57;;;;;;;15.93;9.97;;;4.00;99.90;;;;;;5119320;27;20487;-70
2022/03/07 08:45:25;;;;;;;17.53;9.57;;;4.00;99.90;;;;;;5137351;27;20043;-70
2022/03/07 08:47:51;;;;;;;13.90;9.10;;;4.10;99.90;;;;;;5119419;27;20319;-70
2022/03/07 08:50:18;;;;;;;13.55;9.32;;;4.10;99.90;;;;;;5136767;27;20475;-70
2022/03/07 08:52:45;;;;;;;14.82;8.95;;;4.10;99.90;;;;;;5137342;27;20073;-68
2022/03/07 08:55:12;;;;;;;17.55;8.95;;;4.10;99.90;;;;;;5118746;27;20138;-68
2022/03/07 08:57:38;;;;;;;13.30;9.13;;;4.10;99.90;;;;;;5137223;27;20039;-70
2022/03/07 09:00:07;;;;;;;14.85;10.10;;;4.10;99.90;;;;;;5136931;27;20483;-70
2022/03/07 09:02:33;;;;;;;17.48;10.38;;;4.10;99.90;;;;;;5136929;27;20043;-70
2022/03/07 09:04:59;;;;;;;14.57;8.97;;;4.10;99.90;;;;;;5137028;27;20050;-70
2022/03/07 09:07:28;;;;;;;14.07;8.30;;;4.20;99.90;;;;;;5118455;27;20039;-71
2022/03/07 09:09:55;;;;;;;15.13;8.55;;;4.20;99.90;;;;;;5119034;27;20506;-76
2022/03/07 09:12:22;;;;;;;15.07;8.45;;;4.20;99.90;;;;;;5118492;27;20050;-69
2022/03/07 09:14:48;;;;;;;12.68;8.18;;;4.20;99.90;;;;;;5137092;27;20055;-69
2022/03/07 09:17:14;;;;;;;12.32;7.75;;;4.30;99.90;;;;;;5136522;27;20112;-69
2022/03/07 09:19:40;;;;;;;14.53;7.40;;;4.30;99.90;;;;;;5118601;27;20553;-67
2022/03/07 09:22:05;;;;;;;12.60;6.50;;;4.30;99.90;;;;;;5136184;27;20059;-68
2022/03/07 09:24:31;;;;;;;14.77;7.90;;;4.30;99.90;;;;;;5117941;27;20078;-68
2022/03/07 09:26:57;;;;;;;11.70;6.10;;;4.30;99.90;;;;;;5136702;27;20039;-69
2022/03/07 09:29:24;;;;;;;11.77;5.50;;;4.30;99.90;;;;;;5116731;27;20542;-72
2022/03/07 09:31:50;;;;;;;8.38;4.57;;;4.30;99.90;;;;;;5136502;27;20049;-69
2022/03/07 09:34:16;;;;;;;8.83;3.00;;;4.40;99.90;;;;;;5136248;27;20035;-69
2022/03/07 09:36:42;;;;;;;7.88;3.50;;;4.40;99.90;;;;;;5101132;27;20432;-69
2022/03/07 09:39:08;;;;;;;9.07;3.80;;;4.50;99.90;;;;;;5101252;27;20053;-69
2022/03/07 09:41:34;;;;;;;9.15;4.50;;;4.50;99.90;;;;;;5117809;27;20047;-69
2022/03/07 09:44:00;;;;;;;10.80;6.00;;;4.50;99.90;;;;;;5136300;27;20039;-69
2022/03/07 09:46:26;;;;;;;9.87;5.90;;;4.60;99.90;;;;;;5117690;27;20276;-69
2022/03/07 09:48:53;;;;;;;7.18;4.95;;;4.60;99.90;;;;;;5136379;27;20091;-69
2022/03/07 09:51:19;;;;;;;10.02;4.88;;;4.60;99.90;;;;;;5135944;27;20051;-69
2022/03/07 09:53:44;;;;;;;9.27;4.23;;;4.60;99.90;;;;;;5118126;27;20467;-69
2022/03/07 09:56:10;;;;;;;10.03;5.57;;;4.70;99.90;;;;;;5136123;27;20051;-73
2022/03/07 09:58:36;;;;;;;9.03;5.13;;;4.60;99.90;;;;;;5135863;27;20097;-70
2022/03/07 10:01:13;;;;;;;8.60;4.83;;;4.70;99.90;;;;;;5135964;27;20126;-70
2022/03/07 10:03:40;;;;;;;9.70;4.03;;;4.70;99.90;;;;;;5135628;27;20043;-75
2022/03/07 10:06:15;;;;;;;6.32;3.15;;;4.80;99.90;;;;;;5135884;27;20046;-75
2022/03/07 10:08:54;;;;;;;7.10;3.00;;;5.00;99.90;;;;;;5117767;27;20054;-75
2022/03/07 10:11:20;;;;;;;9.75;3.60;;;5.10;99.90;;;;;;5100738;27;20475;-74
2022/03/07 10:14:05;;;;;;;11.88;3.88;;;5.10;99.90;;;;;;5117781;27;20047;-75
2022/03/07 10:16:42;;;;;;;10.20;4.43;;;5.20;99.90;;;;;;5135387;27;20047;-74
2022/03/07 10:19:13;;;;;;;8.75;3.80;;;5.30;99.90;;;;;;5135682;27;20444;-76
2022/03/07 10:21:50;;;;;;;10.82;4.70;;;5.30;99.90;;;;;;5134877;27;20059;-76
2022/03/07 10:24:17;;;;;;;9.73;4.20;;;5.40;99.90;;;;;;5117265;27;20548;-75
2022/03/07 10:26:43;;;;;;;8.90;4.32;;;5.40;99.90;;;;;;5117367;27;20483;-75
2022/03/07 10:29:09;;;;;;;9.73;3.90;;;5.40;99.90;;;;;;5135401;27;20050;-73
2022/03/07 10:31:37;;;;;;;8.40;4.10;;;5.50;99.90;;;;;;5135058;27;20043;-74
2022/03/07 10:34:04;;;;;;;7.60;4.45;;;5.50;99.90;;;;;;5135294;27;20043;-74
2022/03/07 10:36:33;;;;;;;9.15;3.85;;;5.60;99.90;;;;;;5134838;27;20205;-76
2022/03/07 10:38:59;;;;;;;10.32;4.00;;;5.60;99.90;;;;;;5117171;27;20132;-73
2022/03/07 10:41:45;;;;;;;9.13;3.93;;;5.70;99.90;;;;;;5116187;27;20086;-74
2022/03/07 10:44:30;;;;;;;7.60;3.75;;;5.70;99.90;;;;;;5135171;27;20050;-75
2022/03/07 10:47:13;;;;;;;9.27;3.53;;;5.70;99.90;;;;;;5135140;27;20078;-73
2022/03/07 10:49:51;;;;;;;11.63;4.78;;;5.90;99.90;;;;;;5116578;27;20089;-69
2022/03/07 10:52:18;;;;;;;9.02;3.67;;;6.00;99.90;;;;;;5134959;27;20043;-78
2022/03/07 10:54:44;;;;;;;6.15;3.33;;;6.20;99.90;;;;;;5116320;27;20043;-77
2022/03/07 10:57:10;;;;;;;8.27;4.13;;;6.40;99.90;;;;;;5134927;27;20058;-78
2022/03/07 10:59:38;;;;;;;8.07;3.60;;;6.50;99.90;;;;;;5134625;27;20079;-78
2022/03/07 11:02:06;;;;;;;7.95;3.28;;;6.50;99.90;;;;;;5116652;27;20050;-76
2022/03/07 11:04:37;;;;;;;8.35;2.72;;;6.60;99.90;;;;;;5134408;27;20043;-78
2022/03/07 11:07:04;;;;;;;9.45;2.90;;;6.60;99.90;;;;;;5134711;27;20043;-80
2022/03/07 11:09:30;;;;;;;5.38;2.63;;;6.60;99.90;;;;;;5116136;27;20479;-75
2022/03/07 11:11:56;;;;;;;8.07;2.77;;;6.60;99.90;;;;;;5134594;27;20050;-75
2022/03/07 11:14:24;;;;;;;7.13;2.75;;;6.70;99.90;;;;;;5134393;27;20047;-83
2022/03/07 11:16:51;;;;;;;5.47;2.60;;;6.80;99.20;;;;;;5099065;27;20047;-76
2022/03/07 11:19:21;;;;;;;7.72;2.67;;;6.80;97.40;;;;;;5134544;27;20395;-75
2022/03/07 11:21:51;;;;;;;6.53;2.70;;;6.70;97.10;;;;;;5133951;27;20051;-72
2022/03/07 11:24:21;;;;;;;6.25;2.35;;;6.70;97.70;;;;;;5116398;27;20043;-75
2022/03/07 11:26:49;;;;;;;9.30;3.03;;;6.60;97.40;;;;;;5134057;27;20046;-74
2022/03/07 11:29:16;;;;;;;8.40;2.83;;;6.60;97.20;;;;;;5116291;27;20401;-75
2022/03/07 11:31:42;;;;;;;5.93;2.35;;;6.50;97.60;;;;;;5134043;27;20043;-75
2022/03/07 11:34:09;;;;;;;6.37;2.60;;;6.60;97.50;;;;;;5115686;27;20126;-74
2022/03/07 11:36:43;;;;;;;7.40;2.70;;;6.60;97.80;;;;;;5115839;27;20035;-74
2022/03/07 11:39:09;;;;;;;7.28;2.67;;;6.60;97.10;;;;;;5134334;27;20077;-74
2022/03/07 11:41:37;;;;;;;5.47;2.30;;;6.50;97.40;;;;;;5115588;28;20475;-74
2022/03/07 11:44:09;;;;;;;6.50;2.60;;;6.50;96.90;;;;;;5134190;27;20046;-74
2022/03/07 11:46:41;;;;;;;8.02;2.40;;;6.60;96.70;;;;;;5133847;27;20047;-74
2022/03/07 11:49:09;;;;;;;7.72;3.05;;;6.60;96.90;;;;;;5133797;27;20509;-74
2022/03/07 11:51:38;;;;;;;5.60;2.63;;;6.70;96.90;;;;;;5132973;27;20442;-75
2022/03/07 11:54:05;;;;;;;5.60;2.47;;;6.70;96.50;;;;;;5134139;28;20043;-72
2022/03/07 11:56:35;;;;;;;5.20;2.10;;;6.70;96.00;;;;;;5133584;28;20050;-69
2022/03/07 11:59:04;;;;;;;7.10;3.17;;;6.80;95.20;;;;;;5133979;28;20130;-69
2022/03/07 12:01:31;;;;;;;4.07;1.67;;;6.80;95.30;;;;;;5133862;28;20047;-69
2022/03/07 12:04:14;;;;;;;6.45;2.05;;;7.00;92.20;;;;;;5116238;28;20039;-69
2022/03/07 12:06:49;;;;;;;6.50;2.40;;;7.00;92.40;;;;;;5115686;28;20058;-69
2022/03/07 12:09:32;;;;;;;6.53;1.80;;;6.90;91.30;;;;;;5133996;28;20042;-70
2022/03/07 12:12:10;;;;;;;5.18;1.67;;;6.90;91.60;;;;;;5133962;28;20055;-70
2022/03/07 12:14:40;;;;;;;7.47;1.65;;;6.80;90.90;;;;;;5133685;28;20047;-71
2022/03/07 12:17:16;;;;;;;5.00;1.67;;;6.80;91.40;;;;;;5115755;28;20054;-70
2022/03/07 12:19:42;;;;;;;6.93;1.73;;;6.70;90.60;;;;;;5133629;28;20047;-70
2022/03/07 12:22:13;;;;;;;5.75;1.75;;;6.70;90.20;;;;;;5133960;27;20061;-77
2022/03/07 12:24:40;;;;;;;4.72;2.03;;;6.70;89.90;;;;;;5117310;27;20047;-81
2022/03/07 12:27:06;;;;;;;5.35;2.03;;;6.70;87.90;;;;;;5134668;27;20053;-76
2022/03/07 12:29:33;;;;;;;3.92;1.50;;;6.70;88.30;;;;;;5153824;27;20519;-75
2022/03/07 12:32:03;;;;;;;6.07;1.60;;;6.70;84.20;;;;;;5102558;27;20124;-77
2022/03/07 12:34:31;;;;;;;6.63;2.03;;;6.80;85.10;;;;;;5135981;27;20062;-70
2022/03/07 12:37:08;;;;;;;5.10;1.60;;;6.80;85.00;;;;;;5135556;27;20487;-69
2022/03/07 12:39:57;;;;;;;5.22;1.63;;;6.90;84.20;;;;;;5153836;27;20046;-72
2022/03/07 12:42:26;;;;;;;4.70;1.60;;;7.00;84.30;;;;;;5136169;27;20051;-69
2022/03/07 12:44:52;;;;;;;4.50;1.65;;;7.10;80.70;;;;;;5147688;27;20072;-70
2022/03/07 12:47:26;;;;;;;2.97;1.10;;;7.20;81.20;;;;;;5133275;27;20087;-70
2022/03/07 12:49:52;;;;;;;3.72;1.35;;;7.40;78.00;;;;;;5132906;28;20051;-69
2022/03/07 12:52:29;;;;;;;5.73;1.63;;;7.40;74.70;;;;;;5115155;28;20047;-69
2022/03/07 12:54:56;;;;;;;6.22;1.40;;;7.40;73.40;;;;;;5138198;27;20042;-69